East Dereham, United Kingdom
Current Conditions -  °F | °C
As of 7:50 PM on Friday 31 Oct 2014 (Local Time) from EGSH Reporting Station
Clear Clear  
Wind Chill: 59°   Ceiling: Unl
Heat Index: 59°   Visibility: 6mi
Dew Point: 54°   Wind: 8mph
Humidity: 82%   Direction: 180°S
Pressure: 29.97"   Gusts: NA
Location:  52.68°N, 0.93°E
Report Text: EGSH 311950Z 18007KT 130V220 CAVOK 15/12 Q1015 NOSIG
Loading
Personal Weather Stations






























Interactive Weather Map New forecast layout! Learn more

10-Day Weather Forecast

Advertisements
Track Severe Weather on mobile